Time;durP1;ratioP1;P1;durP2;ratioP2;P2;SDS_P1;SDS_P2;PMS_P1;PMS_P2;Temp;Humidity;BMP_temperature;BMP_pressure;BME280_temperature;BME280_humidity;BME280_pressure;Samples;Min_cycle;Max_cycle;Signal;HPM_P1;HPM_P2
2023/04/20 00:00:34;;;;;;;8.40;4.88;;;11.70;74.70;;;;;;4195076;28;20048;-55
2023/04/20 00:02:37;;;;;;;9.98;4.72;;;11.60;74.90;;;;;;4213474;28;20101;-54
2023/04/20 00:04:39;;;;;;;8.13;5.00;;;11.60;75.20;;;;;;4213664;28;20499;-54
2023/04/20 00:06:42;;;;;;;9.90;4.43;;;11.50;74.90;;;;;;4213868;28;20415;-56
2023/04/20 00:08:45;;;;;;;16.13;5.15;;;11.50;75.30;;;;;;4213441;28;20059;-54
2023/04/20 00:10:47;;;;;;;11.75;4.65;;;11.40;76.10;;;;;;4212363;28;20055;-54
2023/04/20 00:12:49;;;;;;;8.98;4.43;;;11.40;75.50;;;;;;4213511;28;20389;-55
2023/04/20 00:14:53;;;;;;;9.85;4.75;;;11.30;75.50;;;;;;4213494;28;20195;-55
2023/04/20 00:16:55;;;;;;;8.88;4.80;;;11.20;75.60;;;;;;4214042;28;20121;-55
2023/04/20 00:18:57;;;;;;;10.77;4.65;;;11.20;75.50;;;;;;4216626;28;20044;-54
2023/04/20 00:21:00;;;;;;;8.23;4.60;;;11.10;75.80;;;;;;4215741;28;20059;-54
2023/04/20 00:23:02;;;;;;;8.15;4.65;;;11.10;75.80;;;;;;4198426;28;20044;-55
2023/04/20 00:25:05;;;;;;;9.00;4.90;;;11.10;76.00;;;;;;4216329;28;20045;-54
2023/04/20 00:27:07;;;;;;;11.20;5.88;;;11.00;75.90;;;;;;4216807;28;20412;-55
2023/04/20 00:29:10;;;;;;;7.45;4.72;;;10.90;76.00;;;;;;4217087;28;20417;-54
2023/04/20 00:31:13;;;;;;;8.23;5.05;;;10.90;76.30;;;;;;4215733;28;20044;-55
2023/04/20 00:33:16;;;;;;;7.25;5.18;;;10.90;76.20;;;;;;4216847;28;20195;-55
2023/04/20 00:35:18;;;;;;;13.85;4.90;;;10.90;76.30;;;;;;4216883;28;20048;-53
2023/04/20 00:37:19;;;;;;;7.43;4.90;;;10.80;76.30;;;;;;4216755;28;20090;-54
2023/04/20 00:39:21;;;;;;;8.57;4.82;;;10.80;76.30;;;;;;4216330;28;20062;-56
2023/04/20 00:41:23;;;;;;;9.48;5.00;;;10.80;76.60;;;;;;4215839;28;20496;-54
2023/04/20 00:43:26;;;;;;;7.32;5.20;;;10.70;76.70;;;;;;4198474;28;20123;-54
2023/04/20 00:45:28;;;;;;;13.85;4.97;;;10.70;76.60;;;;;;4216593;28;20055;-54
2023/04/20 00:47:31;;;;;;;13.80;5.10;;;10.70;76.80;;;;;;4198364;28;20552;-54
2023/04/20 00:49:34;;;;;;;5.90;4.38;;;10.70;77.00;;;;;;4216532;28;20122;-55
2023/04/20 00:51:36;;;;;;;7.50;5.15;;;10.70;77.20;;;;;;4215028;28;20082;-54
2023/04/20 00:53:39;;;;;;;9.18;5.18;;;10.60;77.00;;;;;;4215920;28;20051;-54
2023/04/20 00:55:43;;;;;;;12.40;5.75;;;10.70;77.30;;;;;;4216284;28;20050;-55
2023/04/20 00:57:45;;;;;;;8.60;4.68;;;10.60;77.10;;;;;;4216320;28;20043;-53
2023/04/20 00:59:48;;;;;;;8.73;4.80;;;10.60;77.60;;;;;;4216239;28;20054;-55
2023/04/20 01:01:50;;;;;;;9.30;4.90;;;10.50;77.10;;;;;;4197152;28;20048;-53
2023/04/20 01:03:54;;;;;;;13.48;4.97;;;10.60;77.30;;;;;;4216250;28;20436;-55
2023/04/20 01:05:56;;;;;;;9.13;5.00;;;10.60;77.50;;;;;;4216196;28;20101;-53
2023/04/20 01:07:59;;;;;;;9.43;4.72;;;10.50;77.50;;;;;;4215925;28;20066;-55
2023/04/20 01:10:03;;;;;;;11.57;4.45;;;10.50;77.50;;;;;;4216373;28;20075;-55
2023/04/20 01:12:05;;;;;;;10.23;4.90;;;10.50;77.50;;;;;;4197628;28;20127;-55
2023/04/20 01:14:07;;;;;;;6.72;4.60;;;10.50;77.50;;;;;;4217522;28;20107;-55
2023/04/20 01:16:10;;;;;;;9.40;4.95;;;10.50;77.40;;;;;;4217922;28;20199;-60
2023/04/20 01:18:13;;;;;;;8.00;4.93;;;10.50;77.60;;;;;;4217364;28;20048;-55
2023/04/20 01:20:16;;;;;;;15.10;5.20;;;10.40;77.70;;;;;;4217041;28;20044;-55
2023/04/20 01:22:20;;;;;;;7.22;4.53;;;10.40;77.90;;;;;;4215698;28;20071;-56
2023/04/20 01:24:22;;;;;;;11.55;5.50;;;10.40;78.00;;;;;;4216205;28;20120;-55
2023/04/20 01:26:24;;;;;;;8.50;5.00;;;10.40;77.80;;;;;;4216764;28;20048;-55
2023/04/20 01:28:26;;;;;;;7.60;4.65;;;10.40;77.90;;;;;;4214628;28;20449;-55
2023/04/20 01:30:28;;;;;;;12.75;5.25;;;10.40;77.90;;;;;;4215823;28;20098;-54
2023/04/20 01:32:31;;;;;;;9.07;4.90;;;10.40;78.10;;;;;;4214971;28;20050;-55
2023/04/20 01:34:33;;;;;;;6.53;4.72;;;10.30;78.20;;;;;;4215931;28;20413;-55
2023/04/20 01:36:35;;;;;;;7.95;4.57;;;10.30;78.00;;;;;;4215432;28;20060;-57
2023/04/20 01:38:40;;;;;;;5.32;4.47;;;10.30;78.10;;;;;;4215173;28;20411;-56
2023/04/20 01:40:42;;;;;;;6.32;4.45;;;10.30;78.10;;;;;;4215331;28;20448;-55
2023/04/20 01:42:44;;;;;;;11.38;4.63;;;10.30;78.10;;;;;;4214729;28;20048;-55
2023/04/20 01:44:46;;;;;;;6.40;4.57;;;10.20;77.80;;;;;;4215917;28;20408;-55
2023/04/20 01:46:48;;;;;;;10.70;5.07;;;10.20;78.10;;;;;;4215660;28;20060;-54
2023/04/20 01:48:50;;;;;;;10.63;4.43;;;10.10;78.00;;;;;;4215166;28;20127;-54
2023/04/20 01:50:53;;;;;;;12.43;4.35;;;10.10;78.20;;;;;;4215147;28;20039;-55
2023/04/20 01:52:55;;;;;;;8.75;4.70;;;10.10;78.40;;;;;;4196873;28;20045;-56
2023/04/20 01:54:59;;;;;;;5.93;4.05;;;10.10;78.50;;;;;;4215602;28;20089;-53
2023/04/20 01:57:01;;;;;;;7.32;4.63;;;10.10;78.60;;;;;;4215540;28;20067;-55
2023/04/20 01:59:03;;;;;;;12.43;4.45;;;10.00;78.80;;;;;;4215750;28;20048;-55
2023/04/20 02:01:07;;;;;;;8.30;4.32;;;10.00;78.90;;;;;;4214380;28;20128;-56
2023/04/20 02:03:09;;;;;;;8.93;4.70;;;10.00;79.00;;;;;;4215038;28;20097;-54
2023/04/20 02:05:12;;;;;;;9.32;4.90;;;10.00;78.90;;;;;;4197396;28;20049;-54
2023/04/20 02:07:14;;;;;;;10.38;5.15;;;10.00;79.10;;;;;;4214986;28;20101;-54
2023/04/20 02:09:16;;;;;;;8.05;4.72;;;9.90;79.30;;;;;;4215106;28;20412;-54
2023/04/20 02:11:21;;;;;;;7.53;4.25;;;9.80;79.40;;;;;;4214356;28;20093;-54
2023/04/20 02:13:23;;;;;;;10.63;4.32;;;9.80;79.40;;;;;;4214832;28;20123;-54
2023/04/20 02:15:25;;;;;;;7.15;4.32;;;9.70;79.50;;;;;;4214880;28;20044;-54
2023/04/20 02:17:27;;;;;;;11.25;3.95;;;9.70;79.80;;;;;;4196462;28;20048;-53
2023/04/20 02:19:29;;;;;;;17.13;4.88;;;9.70;79.70;;;;;;4214947;28;20048;-53
2023/04/20 02:21:32;;;;;;;6.75;4.30;;;9.60;80.00;;;;;;4204819;28;20542;-55
2023/04/20 02:23:34;;;;;;;10.18;4.40;;;9.60;80.20;;;;;;4196890;28;20048;-55
2023/04/20 02:25:37;;;;;;;8.13;4.82;;;9.60;80.20;;;;;;4197267;28;20433;-55
2023/04/20 02:27:41;;;;;;;11.27;4.80;;;9.50;80.50;;;;;;4215155;28;20044;-58
2023/04/20 02:29:43;;;;;;;5.38;3.92;;;9.50;80.60;;;;;;4215353;28;20119;-56
2023/04/20 02:31:45;;;;;;;9.05;4.75;;;9.50;80.80;;;;;;4214648;28;20054;-55
2023/04/20 02:33:49;;;;;;;8.75;4.65;;;9.50;80.70;;;;;;4215658;28;20040;-58
2023/04/20 02:35:51;;;;;;;7.53;4.53;;;9.50;80.80;;;;;;4216627;28;20086;-55
2023/04/20 02:37:53;;;;;;;10.93;4.13;;;9.40;81.00;;;;;;4215687;28;20044;-55
2023/04/20 02:39:55;;;;;;;6.35;4.55;;;9.40;80.90;;;;;;4215029;28;20052;-55
2023/04/20 02:41:57;;;;;;;8.52;4.95;;;9.30;81.00;;;;;;4213139;28;20047;-56
2023/04/20 02:44:00;;;;;;;13.05;4.60;;;9.30;81.10;;;;;;4215040;28;20048;-55
2023/04/20 02:46:02;;;;;;;6.15;4.05;;;9.30;81.30;;;;;;4214655;28;20269;-54
2023/04/20 02:48:06;;;;;;;7.75;3.95;;;9.20;81.00;;;;;;4214452;28;20055;-54
2023/04/20 02:50:09;;;;;;;15.05;4.70;;;9.20;81.30;;;;;;4214265;28;20043;-55
2023/04/20 02:52:11;;;;;;;5.32;4.18;;;9.20;81.40;;;;;;4195354;28;20044;-52
2023/04/20 02:54:13;;;;;;;8.50;4.15;;;9.10;81.60;;;;;;4214384;28;20040;-54
2023/04/20 02:56:15;;;;;;;5.32;3.88;;;9.00;81.70;;;;;;4214446;28;20123;-54
2023/04/20 02:58:17;;;;;;;8.43;4.60;;;9.00;82.10;;;;;;4214420;28;20044;-53
2023/04/20 03:00:21;;;;;;;11.40;4.43;;;9.00;82.10;;;;;;4214091;28;20091;-55
2023/04/20 03:02:23;;;;;;;8.32;3.97;;;9.00;82.00;;;;;;4213259;28;20055;-52
2023/04/20 03:04:26;;;;;;;9.63;4.57;;;9.00;82.30;;;;;;4214173;28;20401;-55
2023/04/20 03:06:28;;;;;;;11.30;4.43;;;8.90;82.30;;;;;;4214163;28;20052;-55
2023/04/20 03:08:31;;;;;;;8.15;4.28;;;8.90;82.20;;;;;;4214269;28;20044;-58
2023/04/20 03:10:33;;;;;;;6.85;4.00;;;8.90;82.40;;;;;;4216224;28;20055;-55
2023/04/20 03:12:35;;;;;;;9.27;4.22;;;8.90;82.40;;;;;;4214640;28;20128;-55
2023/04/20 03:14:37;;;;;;;6.47;4.07;;;8.90;82.60;;;;;;4214980;28;20044;-55
2023/04/20 03:16:41;;;;;;;10.63;3.92;;;8.80;82.30;;;;;;4214385;28;20113;-53
2023/04/20 03:18:43;;;;;;;9.52;4.15;;;8.80;82.60;;;;;;4214044;28;20477;-54
2023/04/20 03:20:45;;;;;;;7.72;4.22;;;8.80;82.70;;;;;;4195997;28;20041;-54
2023/04/20 03:22:47;;;;;;;10.30;4.30;;;8.80;82.60;;;;;;4213296;28;20040;-55
2023/04/20 03:24:51;;;;;;;10.93;4.03;;;8.70;82.60;;;;;;4214140;28;20150;-54
2023/04/20 03:26:55;;;;;;;8.73;3.70;;;8.70;82.60;;;;;;4213709;28;20044;-63
2023/04/20 03:28:57;;;;;;;10.20;4.13;;;8.70;82.40;;;;;;4214978;28;20361;-56
2023/04/20 03:31:00;;;;;;;8.50;3.38;;;8.70;82.70;;;;;;4215030;28;20052;-55
2023/04/20 03:33:03;;;;;;;7.25;3.58;;;8.70;82.50;;;;;;4213728;28;20044;-56
2023/04/20 03:35:07;;;;;;;8.98;4.00;;;8.70;82.50;;;;;;4215510;28;20417;-63
2023/04/20 03:37:09;;;;;;;6.35;3.70;;;8.70;82.50;;;;;;4215200;28;20048;-56
2023/04/20 03:39:18;;;;;;;7.65;3.38;;;8.70;82.40;;;;;;4214605;28;20424;-54
2023/04/20 03:41:22;;;;;;;9.80;3.72;;;8.60;82.50;;;;;;4214201;28;20443;-58
2023/04/20 03:43:24;;;;;;;7.78;3.53;;;8.70;82.40;;;;;;4214730;28;20048;-55
2023/04/20 03:45:26;;;;;;;9.02;3.25;;;8.60;82.00;;;;;;4214876;28;20473;-53
2023/04/20 03:47:29;;;;;;;9.60;3.85;;;8.60;82.10;;;;;;4213985;28;20532;-55
2023/04/20 03:49:34;;;;;;;6.00;3.67;;;8.60;82.10;;;;;;4214258;28;20524;-55
2023/04/20 03:51:36;;;;;;;;;;;8.60;82.40;;;;;;4213752;28;20048;-58
2023/04/20 03:53:38;;;;;;;8.25;3.92;;;8.50;82.90;;;;;;4214046;28;20369;-56
2023/04/20 03:55:40;;;;;;;9.23;3.38;;;8.50;82.30;;;;;;4214712;28;20450;-55
2023/04/20 03:57:45;;;;;;;6.80;3.35;;;8.50;82.40;;;;;;4214410;28;20044;-55
2023/04/20 03:59:47;;;;;;;6.07;3.28;;;8.50;82.40;;;;;;4214277;28;20444;-55
2023/04/20 04:01:50;;;;;;;6.05;3.90;;;8.50;82.40;;;;;;4212822;28;20052;-54
2023/04/20 04:03:52;;;;;;;8.88;3.47;;;8.40;82.40;;;;;;4213410;28;20455;-55
2023/04/20 04:05:56;;;;;;;8.95;3.50;;;8.40;82.50;;;;;;4213841;28;20478;-55
2023/04/20 04:07:58;;;;;;;6.18;4.03;;;8.40;82.70;;;;;;4196142;28;20044;-53
2023/04/20 04:10:03;;;;;;;13.05;3.53;;;8.40;82.50;;;;;;4213470;28;20048;-54
2023/04/20 04:12:06;;;;;;;4.93;3.42;;;8.30;82.60;;;;;;4213117;28;20465;-54
2023/04/20 04:14:10;;;;;;;9.10;3.30;;;8.30;82.50;;;;;;4196443;28;20045;-55
2023/04/20 04:16:12;;;;;;;8.70;3.30;;;8.30;82.30;;;;;;4214013;28;20493;-55
2023/04/20 04:18:14;;;;;;;8.93;3.67;;;8.30;82.50;;;;;;4213512;28;20047;-61
2023/04/20 04:20:16;;;;;;;4.82;3.10;;;8.30;82.60;;;;;;4213597;28;20052;-56
2023/04/20 04:22:19;;;;;;;8.52;3.55;;;8.30;82.50;;;;;;4212551;28;20063;-55
2023/04/20 04:24:25;;;;;;;10.95;3.67;;;8.20;82.80;;;;;;4213831;28;20455;-53
2023/04/20 04:26:27;;;;;;;7.10;3.50;;;8.20;82.70;;;;;;4196050;28;20052;-56
2023/04/20 04:28:30;;;;;;;5.55;3.10;;;8.20;82.90;;;;;;4214253;28;20121;-54
2023/04/20 04:30:32;;;;;;;5.90;3.47;;;8.20;82.90;;;;;;4214010;28;20044;-53
2023/04/20 04:32:34;;;;;;;9.73;3.78;;;8.20;82.90;;;;;;4213162;28;20056;-54
2023/04/20 04:34:37;;;;;;;8.60;3.50;;;8.20;82.90;;;;;;4214152;28;20056;-59
2023/04/20 04:36:40;;;;;;;7.85;3.47;;;8.20;82.70;;;;;;4215403;28;20056;-54
2023/04/20 04:38:44;;;;;;;7.28;3.78;;;8.20;82.80;;;;;;4215387;28;20048;-55
2023/04/20 04:40:46;;;;;;;5.63;3.25;;;8.10;83.00;;;;;;4215485;28;20376;-56
2023/04/20 04:42:48;;;;;;;9.45;3.47;;;8.00;82.50;;;;;;4212817;28;20415;-54
2023/04/20 04:44:52;;;;;;;7.50;3.35;;;8.00;82.60;;;;;;4213553;28;20063;-54
2023/04/20 04:46:54;;;;;;;10.70;3.28;;;8.00;82.70;;;;;;4213420;28;20044;-55
2023/04/20 04:48:59;;;;;;;9.40;3.58;;;8.00;82.80;;;;;;4213405;28;20117;-54
2023/04/20 04:51:02;;;;;;;8.27;3.47;;;7.90;82.90;;;;;;4213948;28;20058;-52
2023/04/20 04:53:04;;;;;;;7.43;3.78;;;7.90;83.10;;;;;;4212581;28;20123;-55
2023/04/20 04:55:08;;;;;;;8.50;3.20;;;7.90;83.20;;;;;;4213896;28;20044;-55
2023/04/20 04:57:11;;;;;;;9.00;2.85;;;7.90;83.50;;;;;;4213978;28;20043;-54
2023/04/20 04:59:13;;;;;;;8.75;3.85;;;7.90;83.20;;;;;;4195700;28;20058;-53
2023/04/20 05:01:15;;;;;;;7.15;3.97;;;7.80;83.10;;;;;;4212957;28;20048;-54
2023/04/20 05:03:17;;;;;;;11.32;3.58;;;7.80;83.30;;;;;;4212475;28;20044;-55
2023/04/20 05:05:20;;;;;;;10.63;3.47;;;7.80;83.30;;;;;;4216434;28;20048;-54
2023/04/20 05:07:23;;;;;;;9.43;3.45;;;7.80;83.40;;;;;;4216922;28;20358;-55
2023/04/20 05:09:32;;;;;;;8.70;3.45;;;7.80;83.20;;;;;;4217028;28;20052;-54
2023/04/20 05:11:35;;;;;;;9.88;3.55;;;7.70;83.10;;;;;;4216829;28;20557;-54
2023/04/20 05:13:37;;;;;;;8.07;3.97;;;7.70;83.00;;;;;;4216190;28;20123;-56
2023/04/20 05:15:40;;;;;;;7.95;3.70;;;7.70;82.80;;;;;;4216166;28;20131;-53
2023/04/20 05:17:45;;;;;;;6.88;3.47;;;7.70;83.00;;;;;;4216307;28;20043;-54
2023/04/20 05:19:47;;;;;;;18.17;3.70;;;7.70;82.90;;;;;;4216376;28;20052;-54
2023/04/20 05:21:51;;;;;;;6.85;3.85;;;7.70;82.80;;;;;;4215187;28;20197;-59
2023/04/20 05:23:53;;;;;;;17.92;4.03;;;7.70;82.80;;;;;;4215880;28;20040;-55
2023/04/20 05:25:55;;;;;;;10.57;3.72;;;7.70;82.90;;;;;;4215860;28;20044;-54
2023/04/20 05:27:59;;;;;;;6.47;4.13;;;7.70;82.90;;;;;;4216080;28;20040;-54
2023/04/20 05:30:02;;;;;;;8.95;3.78;;;7.70;82.90;;;;;;4215971;28;20435;-54
2023/04/20 05:32:20;;;;;;;9.55;4.25;;;7.70;83.10;;;;;;4215101;28;20047;-55
2023/04/20 05:34:22;;;;;;;12.48;4.28;;;7.70;83.20;;;;;;4215913;28;20496;-54
2023/04/20 05:36:25;;;;;;;7.82;3.90;;;7.70;83.20;;;;;;4215743;28;20071;-54
2023/04/20 05:38:27;;;;;;;11.73;4.30;;;7.70;82.90;;;;;;4215574;28;20044;-54
2023/04/20 05:40:29;;;;;;;13.13;4.60;;;7.70;82.90;;;;;;4215863;28;20048;-54
2023/04/20 05:42:32;;;;;;;12.00;3.90;;;7.60;83.80;;;;;;4214631;28;20048;-54
2023/04/20 05:44:35;;;;;;;6.97;3.85;;;7.60;82.80;;;;;;4215641;28;20040;-54
2023/04/20 05:46:37;;;;;;;11.10;3.92;;;7.60;82.80;;;;;;4215879;28;20052;-57
2023/04/20 05:48:39;;;;;;;10.65;3.97;;;7.60;82.70;;;;;;4215776;28;20509;-55
2023/04/20 05:50:43;;;;;;;6.50;3.97;;;7.70;82.70;;;;;;4197766;28;20058;-54
2023/04/20 05:52:45;;;;;;;7.65;3.75;;;7.70;82.80;;;;;;4214827;28;20115;-54
2023/04/20 05:54:48;;;;;;;9.20;3.88;;;7.70;82.90;;;;;;4215904;28;20098;-54
2023/04/20 05:56:50;;;;;;;8.20;3.90;;;7.80;83.10;;;;;;4215560;28;20051;-55
2023/04/20 05:58:53;;;;;;;7.43;3.75;;;7.80;83.10;;;;;;4215108;28;20044;-54
2023/04/20 06:00:56;;;;;;;8.88;4.05;;;7.80;83.10;;;;;;4215309;28;20044;-55
2023/04/20 06:02:58;;;;;;;5.90;3.75;;;7.80;82.80;;;;;;4214149;28;20477;-55
2023/04/20 06:05:01;;;;;;;17.27;4.25;;;7.80;82.90;;;;;;4215184;28;20048;-56
2023/04/20 06:07:03;;;;;;;11.00;3.60;;;7.80;82.90;;;;;;4197251;28;20045;-54
2023/04/20 06:09:05;;;;;;;8.10;3.60;;;7.80;82.70;;;;;;4215216;28;20048;-55
2023/04/20 06:11:07;;;;;;;12.70;4.25;;;7.80;82.20;;;;;;4215093;28;20044;-54
2023/04/20 06:13:09;;;;;;;12.30;3.95;;;7.80;82.40;;;;;;4213748;28;20044;-58
2023/04/20 06:15:11;;;;;;;7.70;3.92;;;7.90;82.10;;;;;;4214761;28;20044;-53
2023/04/20 06:17:15;;;;;;;8.27;3.88;;;7.90;82.30;;;;;;4214939;28;20074;-54
2023/04/20 06:19:17;;;;;;;7.65;3.42;;;7.90;82.30;;;;;;4215333;28;20543;-53
2023/04/20 06:21:20;;;;;;;12.60;4.50;;;7.90;82.10;;;;;;4214952;28;20481;-54
2023/04/20 06:23:22;;;;;;;13.75;4.38;;;8.00;82.30;;;;;;4195854;28;20052;-58
2023/04/20 06:25:24;;;;;;;12.52;3.90;;;8.00;82.00;;;;;;4214983;28;20143;-54
2023/04/20 06:27:26;;;;;;;9.20;3.90;;;8.00;81.80;;;;;;4214579;28;20044;-55
2023/04/20 06:29:29;;;;;;;5.78;3.33;;;8.10;81.70;;;;;;4214532;28;20387;-53
2023/04/20 06:31:31;;;;;;;18.38;4.07;;;8.10;81.80;;;;;;4214636;28;20062;-53
2023/04/20 06:33:35;;;;;;;9.50;3.67;;;8.10;81.50;;;;;;4213542;28;20055;-54
2023/04/20 06:35:38;;;;;;;9.48;4.10;;;8.10;81.80;;;;;;4214899;28;20044;-55
2023/04/20 06:37:40;;;;;;;8.27;4.10;;;8.10;82.00;;;;;;4214628;28;20048;-54
2023/04/20 06:39:42;;;;;;;9.73;4.32;;;8.20;81.70;;;;;;4214709;28;20127;-53
2023/04/20 06:41:45;;;;;;;11.50;4.47;;;8.30;81.80;;;;;;4214207;28;20124;-54
2023/04/20 06:43:47;;;;;;;23.85;4.63;;;8.30;81.80;;;;;;4214136;28;20040;-55
2023/04/20 06:45:49;;;;;;;8.50;3.80;;;8.30;81.80;;;;;;4214720;28;20127;-53
2023/04/20 06:47:51;;;;;;;11.77;4.00;;;8.30;82.30;;;;;;4214498;28;20185;-52
2023/04/20 06:49:54;;;;;;;15.18;4.50;;;8.30;81.70;;;;;;4214535;28;20040;-57
2023/04/20 06:51:56;;;;;;;9.40;4.32;;;8.30;81.90;;;;;;4211608;28;20515;-55
2023/04/20 06:53:59;;;;;;;10.07;4.40;;;8.40;81.80;;;;;;4214095;28;20044;-55
2023/04/20 06:56:01;;;;;;;16.27;3.90;;;8.40;81.40;;;;;;4213887;28;20390;-54
2023/04/20 06:58:03;;;;;;;7.38;3.97;;;8.40;81.60;;;;;;4197044;28;20421;-53
2023/04/20 07:00:07;;;;;;;5.90;3.70;;;8.50;81.60;;;;;;4213268;28;20067;-55
2023/04/20 07:02:09;;;;;;;10.80;4.32;;;8.50;81.20;;;;;;4213693;28;20366;-55
2023/04/20 07:04:15;;;;;;;13.18;3.92;;;8.60;81.40;;;;;;4214356;28;20055;-54
2023/04/20 07:06:19;;;;;;;8.50;4.35;;;8.60;80.90;;;;;;4213537;28;20040;-53
2023/04/20 07:08:21;;;;;;;9.77;4.13;;;8.60;81.30;;;;;;4213677;28;20170;-56
2023/04/20 07:10:23;;;;;;;12.20;4.80;;;8.50;81.30;;;;;;4213947;28;20051;-62
2023/04/20 07:12:25;;;;;;;9.32;4.22;;;8.50;81.50;;;;;;4196055;28;20051;-60
2023/04/20 07:14:27;;;;;;;12.02;4.57;;;8.60;81.90;;;;;;4214886;28;20504;-53
2023/04/20 07:16:29;;;;;;;7.57;4.32;;;8.60;81.20;;;;;;4214649;28;20063;-54
2023/04/20 07:18:31;;;;;;;9.60;4.65;;;8.60;81.40;;;;;;4206209;28;20507;-55
2023/04/20 07:20:36;;;;;;;9.02;4.53;;;8.70;81.60;;;;;;4214410;28;20131;-59
2023/04/20 07:22:40;;;;;;;18.35;4.63;;;8.80;81.70;;;;;;4212840;28;20043;-55
2023/04/20 07:24:42;;;;;;;10.13;4.57;;;8.80;81.50;;;;;;4214021;28;20044;-54
2023/04/20 07:26:44;;;;;;;11.73;4.50;;;8.90;81.60;;;;;;4211802;28;20036;-54
2023/04/20 07:28:46;;;;;;;10.02;4.40;;;9.00;81.30;;;;;;4213729;28;20055;-55
2023/04/20 07:30:48;;;;;;;16.33;4.80;;;9.40;80.90;;;;;;4213844;28;20047;-54
2023/04/20 07:32:50;;;;;;;12.35;4.35;;;9.90;79.60;;;;;;4212908;28;20117;-54
2023/04/20 07:34:52;;;;;;;14.95;5.47;;;10.30;78.20;;;;;;4213690;28;20097;-56
2023/04/20 07:36:54;;;;;;;11.77;4.43;;;10.50;78.10;;;;;;4213985;28;20488;-55
2023/04/20 07:38:58;;;;;;;10.73;4.97;;;10.90;77.90;;;;;;4209552;28;20076;-54
2023/04/20 07:41:00;;;;;;;11.38;5.10;;;11.20;76.40;;;;;;4209220;28;20135;-52
2023/04/20 07:43:03;;;;;;;15.60;4.60;;;11.40;76.10;;;;;;4211573;28;20444;-52
2023/04/20 07:45:06;;;;;;;11.82;5.25;;;11.60;75.20;;;;;;4213588;28;20114;-52
2023/04/20 07:47:08;;;;;;;11.13;5.05;;;11.80;75.90;;;;;;4214449;28;20048;-55
2023/04/20 07:49:10;;;;;;;30.98;4.88;;;11.90;75.40;;;;;;4214982;28;20127;-54
2023/04/20 07:51:12;;;;;;;10.05;5.25;;;12.20;74.40;;;;;;4214697;28;20131;-56
2023/04/20 07:53:14;;;;;;;10.60;4.32;;;12.40;73.80;;;;;;4213251;28;20559;-55
2023/04/20 07:55:18;;;;;;;10.82;4.50;;;12.50;72.80;;;;;;4213645;28;20048;-55
2023/04/20 07:57:20;;;;;;;10.55;4.57;;;12.40;73.30;;;;;;4214195;28;20066;-58
2023/04/20 07:59:22;;;;;;;10.00;4.28;;;12.60;72.90;;;;;;4212458;28;20040;-54
2023/04/20 08:01:24;;;;;;;14.43;4.70;;;12.50;72.80;;;;;;4213584;28;20448;-55
2023/04/20 08:03:27;;;;;;;12.77;5.18;;;12.40;72.60;;;;;;4212587;28;20044;-55
2023/04/20 08:05:30;;;;;;;10.68;4.72;;;12.20;73.30;;;;;;4213337;28;20122;-54
2023/04/20 08:07:33;;;;;;;8.20;4.35;;;12.10;73.00;;;;;;4213638;28;20056;-53
2023/04/20 08:09:35;;;;;;;20.45;5.15;;;12.10;73.90;;;;;;4213210;28;20398;-56
2023/04/20 08:11:39;;;;;;;17.67;4.95;;;11.90;73.00;;;;;;4213347;28;20051;-52
2023/04/20 08:13:41;;;;;;;10.50;4.90;;;12.00;73.00;;;;;;4212515;28;20135;-56
2023/04/20 08:15:44;;;;;;;14.45;5.53;;;11.90;72.50;;;;;;4212327;28;20044;-53
2023/04/20 08:17:46;;;;;;;12.45;4.72;;;11.90;72.90;;;;;;4207225;28;20374;-54
2023/04/20 08:19:48;;;;;;;10.38;4.93;;;12.00;72.60;;;;;;4213367;28;20067;-55
2023/04/20 08:21:50;;;;;;;15.10;4.97;;;12.00;71.70;;;;;;4195288;28;20048;-55
2023/04/20 08:23:52;;;;;;;10.10;4.60;;;11.90;71.10;;;;;;4210857;28;20147;-56
2023/04/20 08:25:55;;;;;;;17.83;5.03;;;11.90;71.20;;;;;;4230287;28;20404;-55
2023/04/20 08:28:01;;;;;;;13.88;4.80;;;12.00;71.50;;;;;;4230077;28;20058;-56
2023/04/20 08:30:07;;;;;;;10.98;4.55;;;12.00;70.50;;;;;;4229952;28;20070;-55
2023/04/20 08:32:11;;;;;;;9.32;4.60;;;11.90;70.50;;;;;;4229607;28;20051;-55
2023/04/20 08:34:13;;;;;;;12.00;4.70;;;11.70;70.60;;;;;;4217551;28;20044;-55
2023/04/20 08:36:15;;;;;;;15.57;5.00;;;11.80;70.70;;;;;;4213447;28;20044;-56
2023/04/20 08:38:17;;;;;;;11.68;5.05;;;11.80;70.70;;;;;;4213015;28;20052;-55
2023/04/20 08:40:32;;;;;;;14.50;4.85;;;12.00;70.20;;;;;;4216236;28;20048;-53
2023/04/20 08:42:34;;;;;;;10.70;5.28;;;12.00;69.70;;;;;;4215505;28;20097;-55
2023/04/20 08:44:38;;;;;;;12.65;4.75;;;11.90;69.70;;;;;;4216382;28;20241;-54
2023/04/20 08:46:45;;;;;;;14.00;4.78;;;11.90;69.40;;;;;;4216427;28;20071;-57
2023/04/20 08:48:48;;;;;;;11.82;5.05;;;11.90;69.60;;;;;;4214721;28;20040;-53
2023/04/20 08:50:50;;;;;;;12.65;4.70;;;12.00;69.60;;;;;;4216434;28;20048;-56
2023/04/20 08:52:53;;;;;;;11.77;5.63;;;12.00;69.60;;;;;;4215042;28;20058;-55
2023/04/20 08:54:55;;;;;;;9.75;4.95;;;11.90;70.10;;;;;;4216098;28;20548;-54
2023/04/20 08:57:00;;;;;;;11.02;5.30;;;12.00;70.80;;;;;;4216390;28;20128;-55
2023/04/20 08:59:04;;;;;;;8.10;4.72;;;12.10;71.40;;;;;;4216091;28;20532;-55
2023/04/20 09:01:08;;;;;;;11.10;4.43;;;12.30;71.10;;;;;;4216187;28;20504;-54
2023/04/20 09:03:11;;;;;;;11.10;4.53;;;12.30;70.90;;;;;;4215089;28;20076;-54
2023/04/20 09:05:13;;;;;;;13.93;5.25;;;12.40;70.80;;;;;;4215876;28;20047;-56
2023/04/20 09:07:20;;;;;;;10.95;4.88;;;12.60;71.60;;;;;;4213003;28;20048;-53
2023/04/20 09:09:24;;;;;;;9.77;4.88;;;12.80;71.00;;;;;;4215875;28;20123;-54
2023/04/20 09:11:28;;;;;;;13.40;4.85;;;12.80;71.20;;;;;;4215613;28;20054;-53
2023/04/20 09:13:30;;;;;;;17.05;5.22;;;12.80;70.60;;;;;;4207136;28;20047;-55
2023/04/20 09:15:32;;;;;;;10.45;4.65;;;13.00;69.20;;;;;;4210366;28;20377;-53
2023/04/20 09:17:39;;;;;;;12.32;5.07;;;13.00;69.40;;;;;;4213508;28;20040;-52
2023/04/20 09:19:44;;;;;;;9.25;4.60;;;13.00;70.10;;;;;;4207229;28;20039;-52
2023/04/20 09:21:50;;;;;;;11.55;4.93;;;13.00;68.90;;;;;;4214997;28;20047;-53
2023/04/20 09:23:56;;;;;;;18.63;4.78;;;13.00;68.00;;;;;;4214218;28;20493;-55
2023/04/20 09:25:58;;;;;;;10.27;4.25;;;13.10;67.90;;;;;;4215648;28;20463;-55
2023/04/20 09:28:01;;;;;;;15.63;4.45;;;13.20;68.40;;;;;;4215261;28;20047;-53
2023/04/20 09:30:04;;;;;;;14.20;4.20;;;13.10;66.00;;;;;;4209418;28;20048;-53
2023/04/20 09:32:06;;;;;;;15.48;4.57;;;13.20;66.70;;;;;;4211683;28;20036;-52
2023/04/20 09:34:09;;;;;;;12.57;4.60;;;13.20;67.00;;;;;;4194036;28;20044;-53
2023/04/20 09:36:12;;;;;;;15.82;4.40;;;13.20;67.10;;;;;;4212813;28;20036;-55
2023/04/20 09:38:15;;;;;;;10.52;4.20;;;13.30;67.10;;;;;;4214323;28;20048;-53
2023/04/20 09:40:18;;;;;;;22.50;4.50;;;13.30;67.10;;;;;;4215108;28;20048;-54
2023/04/20 09:42:22;;;;;;;15.23;4.13;;;13.30;67.90;;;;;;4215085;28;20063;-55
2023/04/20 09:44:25;;;;;;;7.38;3.97;;;13.20;67.80;;;;;;4214877;28;20540;-54
2023/04/20 09:46:30;;;;;;;17.17;4.28;;;13.20;67.90;;;;;;4213971;28;20063;-52
2023/04/20 09:48:34;;;;;;;13.70;4.03;;;13.10;68.60;;;;;;4186296;28;20040;-53
2023/04/20 09:50:38;;;;;;;14.43;4.18;;;13.20;69.00;;;;;;4206386;28;20533;-56
2023/04/20 09:52:52;;;;;;;24.60;4.70;;;13.30;69.60;;;;;;4208390;28;20169;-53
2023/04/20 09:54:57;;;;;;;19.67;4.65;;;13.20;70.30;;;;;;4210816;28;20070;-55
2023/04/20 09:57:00;;;;;;;25.38;5.22;;;13.20;70.60;;;;;;4212517;28;20052;-54
2023/04/20 09:59:03;;;;;;;18.27;4.32;;;13.30;70.50;;;;;;4190117;28;20123;-55
2023/04/20 10:01:09;;;;;;;15.82;4.75;;;13.40;70.80;;;;;;4210990;28;20040;-54
2023/04/20 10:03:14;;;;;;;12.10;4.30;;;13.40;69.60;;;;;;4211964;28;20093;-54
2023/04/20 10:05:17;;;;;;;12.85;4.90;;;13.10;70.30;;;;;;4206378;28;20044;-53
2023/04/20 10:07:25;;;;;;;10.07;4.55;;;12.90;70.30;;;;;;4207251;28;20492;-56
2023/04/20 10:09:29;;;;;;;12.20;3.78;;;13.10;70.40;;;;;;4214000;28;20040;-55
2023/04/20 10:11:34;;;;;;;12.07;4.33;;;13.10;69.70;;;;;;4217050;28;20063;-56
2023/04/20 10:13:50;;;;;;;12.25;4.28;;;13.30;70.60;;;;;;4221788;28;20106;-53
2023/04/20 10:15:52;;;;;;;15.73;4.65;;;13.30;70.30;;;;;;4211852;28;20129;-53
2023/04/20 10:17:54;;;;;;;16.08;4.32;;;13.30;70.00;;;;;;4212975;28;20124;-53
2023/04/20 10:19:57;;;;;;;12.75;4.90;;;13.50;70.10;;;;;;4211524;28;20086;-53
2023/04/20 10:22:03;;;;;;;14.13;4.20;;;13.80;69.80;;;;;;4212768;28;20047;-53
2023/04/20 10:24:10;;;;;;;11.13;3.90;;;14.10;69.70;;;;;;4206899;28;20055;-57
2023/04/20 10:26:16;;;;;;;9.55;3.88;;;14.10;68.40;;;;;;4208688;28;20048;-55
2023/04/20 10:28:38;;;;;;;27.70;5.47;;;13.80;69.30;;;;;;4206094;28;20049;-55
2023/04/20 10:30:49;;;;;;;19.90;4.25;;;13.60;69.70;;;;;;4212841;28;20067;-55
2023/04/20 10:33:05;;;;;;;17.00;5.13;;;13.30;69.90;;;;;;4212231;28;20469;-52
2023/04/20 10:35:10;;;;;;;14.48;4.45;;;12.90;70.60;;;;;;4207602;28;20094;-53
2023/04/20 10:37:13;;;;;;;15.02;4.97;;;12.90;71.00;;;;;;4208933;28;20482;-53
2023/04/20 10:39:18;;;;;;;15.23;4.57;;;13.00;71.00;;;;;;4213829;28;20048;-55
2023/04/20 10:41:21;;;;;;;12.52;4.38;;;13.10;71.30;;;;;;4211941;28;20051;-56